createdAt,value
2018-03-08T00:00:17.235Z,65.0
2018-03-08T00:01:16.264Z,65.0
2018-03-08T00:02:16.534Z,65.2
2018-03-08T00:03:16.806Z,65.2
2018-03-08T00:04:17.081Z,65.3
2018-03-08T00:05:16.358Z,65.3
2018-03-08T00:06:16.630Z,65.3
2018-03-08T00:07:16.900Z,65.3
2018-03-08T00:08:17.171Z,65.4
2018-03-08T00:09:16.443Z,65.2
2018-03-08T00:10:16.724Z,65.2
2018-03-08T00:11:16.769Z,65.2
2018-03-08T00:12:17.042Z,65.2
2018-03-08T00:13:16.361Z,65.3
2018-03-08T00:14:16.645Z,65.3
2018-03-08T00:15:16.922Z,65.2
2018-03-08T00:16:17.191Z,65.3
2018-03-08T00:17:16.468Z,65.3
2018-03-08T00:18:16.742Z,65.4
2018-03-08T00:19:17.013Z,65.4
2018-03-08T00:20:16.282Z,65.3
2018-03-08T00:21:16.324Z,65.2
2018-03-08T00:22:16.598Z,65.2
2018-03-08T00:23:16.918Z,65.2
2018-03-08T00:24:17.204Z,65.2
2018-03-08T00:25:16.466Z,65.2
2018-03-08T00:26:16.741Z,65.2
2018-03-08T00:27:16.999Z,65.2
2018-03-08T00:28:16.290Z,65.2
2018-03-08T00:29:16.570Z,65.3
2018-03-08T00:30:16.855Z,65.3
2018-03-08T00:31:16.913Z,65.3
2018-03-08T00:32:17.189Z,65.2
2018-03-08T00:33:16.457Z,65.2
2018-03-08T00:34:16.724Z,65.2
2018-03-08T00:35:16.999Z,65.2
2018-03-08T00:36:16.268Z,65.2
2018-03-08T00:37:16.543Z,64.7
2018-03-08T00:38:16.813Z,64.7
2018-03-08T00:39:17.070Z,64.7
2018-03-08T00:40:16.338Z,64.8
2018-03-08T00:41:16.398Z,64.8
2018-03-08T00:42:16.673Z,64.6
2018-03-08T00:43:16.951Z,64.6
2018-03-08T00:44:17.227Z,64.6
2018-03-08T00:45:16.500Z,64.5
2018-03-08T00:46:16.766Z,64.5
2018-03-08T00:47:17.158Z,64.5
2018-03-08T00:48:16.425Z,64.7
2018-03-08T00:49:16.689Z,64.5
2018-03-08T00:50:16.964Z,64.7
2018-03-08T00:51:16.985Z,64.7
2018-03-08T00:52:17.250Z,64.7
2018-03-08T00:53:16.514Z,64.5
2018-03-08T00:54:16.789Z,64.7
2018-03-08T00:55:17.061Z,64.7
2018-03-08T00:56:16.338Z,64.8
2018-03-08T00:57:16.617Z,64.5
2018-03-08T00:58:16.890Z,64.5
2018-03-08T00:59:17.394Z,64.6
2018-03-08T01:00:16.675Z,64.5
2018-03-08T01:01:17.186Z,64.9
2018-03-08T01:02:16.452Z,64.5
2018-03-08T01:03:16.718Z,64.5
2018-03-08T01:04:16.981Z,64.2
2018-03-08T01:05:17.244Z,64.2
2018-03-08T01:06:16.517Z,64.2
2018-03-08T01:07:16.804Z,64.3
2018-03-08T01:08:17.067Z,64.3
2018-03-08T01:09:16.342Z,64.3
2018-03-08T01:10:16.627Z,64.4
2018-03-08T01:11:16.702Z,64.3
2018-03-08T01:12:17.035Z,64.2
2018-03-08T01:13:16.304Z,64.2
2018-03-08T01:14:16.571Z,64.0
2018-03-08T01:15:16.850Z,63.5
2018-03-08T01:16:17.124Z,63.4
2018-03-08T01:17:16.397Z,63.4
2018-03-08T01:18:16.664Z,63.5
2018-03-08T01:19:16.938Z,63.5
2018-03-08T01:20:17.234Z,63.2
2018-03-08T01:21:17.258Z,63.5
2018-03-08T01:22:16.522Z,63.0
2018-03-08T01:23:16.783Z,63.1
2018-03-08T01:24:17.058Z,63.1
2018-03-08T01:25:16.361Z,63.1
2018-03-08T01:26:16.633Z,63.1
2018-03-08T01:27:16.892Z,63.6
2018-03-08T01:28:17.156Z,63.6
2018-03-08T01:29:16.423Z,63.7
2018-03-08T01:30:16.713Z,63.8
2018-03-08T01:31:16.754Z,63.8
2018-03-08T01:32:17.025Z,63.7
2018-03-08T01:33:16.293Z,63.8
2018-03-08T01:34:16.557Z,63.9
2018-03-08T01:35:16.829Z,63.9
2018-03-08T01:36:17.096Z,64.0
2018-03-08T01:37:16.368Z,64.0
2018-03-08T01:38:16.628Z,64.0
2018-03-08T01:39:16.897Z,64.0
2018-03-08T01:40:17.511Z,64.0
2018-03-08T01:41:17.204Z,63.9
2018-03-08T01:42:16.472Z,64.0
2018-03-08T01:43:16.741Z,64.0
2018-03-08T01:44:17.021Z,63.9
2018-03-08T01:45:16.293Z,64.0
2018-03-08T01:46:16.557Z,64.5
2018-03-08T01:47:16.825Z,64.6
2018-03-08T01:48:17.101Z,64.7
2018-03-08T01:49:16.373Z,64.7
2018-03-08T01:50:16.647Z,64.6
2018-03-08T01:51:16.687Z,64.7
2018-03-08T01:52:16.967Z,64.7
2018-03-08T01:53:17.241Z,64.6
2018-03-08T01:54:16.510Z,64.6
2018-03-08T01:55:16.777Z,64.6
2018-03-08T01:56:17.039Z,64.8
2018-03-08T01:57:16.313Z,64.8
2018-03-08T01:58:16.586Z,64.8
2018-03-08T01:59:16.864Z,64.8
2018-03-08T02:00:17.538Z,64.7
2018-03-08T02:01:17.178Z,64.7
2018-03-08T02:02:16.452Z,64.7
2018-03-08T02:03:16.719Z,64.7
2018-03-08T02:04:16.996Z,64.5
2018-03-08T02:05:16.264Z,64.5
2018-03-08T02:06:16.533Z,64.7
2018-03-08T02:07:16.805Z,64.7
2018-03-08T02:08:17.070Z,64.7
2018-03-08T02:09:16.343Z,64.5
2018-03-08T02:10:16.628Z,64.5
2018-03-08T02:11:16.687Z,64.5
2018-03-08T02:12:16.951Z,64.3
2018-03-08T02:13:17.226Z,64.3
2018-03-08T02:14:16.504Z,64.5
2018-03-08T02:15:16.781Z,64.5
2018-03-08T02:16:17.047Z,64.7
2018-03-08T02:17:16.316Z,64.6
2018-03-08T02:18:16.585Z,64.6
2018-03-08T02:19:16.859Z,64.1
2018-03-08T02:20:17.131Z,64.0
2018-03-08T02:21:17.173Z,64.0
2018-03-08T02:22:16.448Z,64.1
2018-03-08T02:23:16.717Z,64.5
2018-03-08T02:24:16.987Z,64.6
2018-03-08T02:25:16.269Z,64.5
2018-03-08T02:26:16.546Z,64.5
2018-03-08T02:27:16.829Z,64.8
2018-03-08T02:28:17.099Z,64.8
2018-03-08T02:29:16.371Z,64.7
2018-03-08T02:30:16.653Z,64.9
2018-03-08T02:31:16.702Z,64.8
2018-03-08T02:32:16.974Z,65.0
2018-03-08T02:33:17.241Z,65.0
2018-03-08T02:34:16.507Z,65.0
2018-03-08T02:35:16.783Z,65.5
2018-03-08T02:36:17.061Z,65.6
2018-03-08T02:37:16.334Z,65.7
2018-03-08T02:38:16.606Z,65.7
2018-03-08T02:39:16.910Z,65.8
2018-03-08T02:40:17.517Z,65.8
2018-03-08T02:41:17.239Z,65.9
2018-03-08T02:42:16.509Z,66.5
2018-03-08T02:43:16.787Z,66.5
2018-03-08T02:44:17.067Z,66.5
2018-03-08T02:45:16.333Z,66.6
2018-03-08T02:46:16.618Z,66.5
2018-03-08T02:47:16.889Z,66.7
2018-03-08T02:48:17.173Z,66.7
2018-03-08T02:49:16.460Z,66.7
2018-03-08T02:50:16.737Z,67.3
2018-03-08T02:51:16.788Z,67.3
2018-03-08T02:52:17.056Z,67.4
2018-03-08T02:53:16.338Z,67.5
2018-03-08T02:54:16.613Z,67.5
2018-03-08T02:55:17.063Z,67.5
2018-03-08T02:56:16.342Z,67.5
2018-03-08T02:57:16.618Z,68.0
2018-03-08T02:58:16.889Z,68.2
2018-03-08T02:59:17.160Z,68.2
2018-03-08T03:00:16.446Z,68.8
2018-03-08T03:01:16.497Z,68.8
2018-03-08T03:02:16.776Z,68.8
2018-03-08T03:03:17.065Z,69.0
2018-03-08T03:04:16.341Z,69.5
2018-03-08T03:05:16.608Z,69.6
2018-03-08T03:06:16.884Z,69.8
2018-03-08T03:07:17.150Z,69.8
2018-03-08T03:08:16.420Z,69.9
2018-03-08T03:09:16.695Z,70.7
2018-03-08T03:10:16.970Z,70.8
2018-03-08T03:11:17.324Z,70.7
2018-03-08T03:12:16.604Z,70.9
2018-03-08T03:13:16.874Z,71.5
2018-03-08T03:14:17.148Z,71.6
2018-03-08T03:15:16.426Z,71.7
2018-03-08T03:16:16.693Z,71.7
2018-03-08T03:17:16.975Z,71.8
2018-03-08T03:18:17.246Z,72.2
2018-03-08T03:19:16.517Z,72.3
2018-03-08T03:20:16.796Z,72.2
2018-03-08T03:21:16.829Z,72.2
2018-03-08T03:22:17.104Z,72.2
2018-03-08T03:23:16.377Z,72.2
2018-03-08T03:24:16.650Z,72.3
2018-03-08T03:25:16.923Z,72.3
2018-03-08T03:26:17.197Z,72.2
2018-03-08T03:27:16.484Z,72.2
2018-03-08T03:28:16.755Z,72.7
2018-03-08T03:29:17.034Z,72.7
2018-03-08T03:30:16.326Z,72.8
2018-03-08T03:31:16.353Z,72.8
2018-03-08T03:32:16.633Z,72.8
2018-03-08T03:33:16.896Z,72.8
2018-03-08T03:34:17.167Z,72.8
2018-03-08T03:35:16.437Z,72.7
2018-03-08T03:36:16.706Z,72.7
2018-03-08T03:37:16.984Z,72.8
2018-03-08T03:38:17.250Z,73.2
2018-03-08T03:39:16.520Z,73.4
2018-03-08T03:40:16.797Z,73.4
2018-03-08T03:41:16.839Z,73.2
2018-03-08T03:42:17.125Z,73.1
2018-03-08T03:43:16.396Z,73.2
2018-03-08T03:44:16.661Z,73.2
2018-03-08T03:45:16.938Z,73.0
2018-03-08T03:46:17.484Z,73.0
2018-03-08T03:47:16.761Z,73.0
2018-03-08T03:48:17.035Z,73.1
2018-03-08T03:49:16.310Z,73.2
2018-03-08T03:50:16.583Z,73.2
2018-03-08T03:51:16.634Z,73.2
2018-03-08T03:52:16.901Z,72.7
2018-03-08T03:53:17.168Z,72.7
2018-03-08T03:54:16.639Z,72.8
2018-03-08T03:55:16.905Z,73.0
2018-03-08T03:56:17.193Z,72.6
2018-03-08T03:57:16.459Z,72.5
2018-03-08T03:58:16.729Z,72.3
2018-03-08T03:59:16.995Z,72.5
2018-03-08T04:00:16.278Z,72.5
2018-03-08T04:01:16.302Z,72.6
2018-03-08T04:02:16.621Z,72.5
2018-03-08T04:03:16.895Z,72.0
2018-03-08T04:04:17.165Z,71.9
2018-03-08T04:05:16.431Z,71.9
2018-03-08T04:06:16.699Z,71.9
2018-03-08T04:07:16.961Z,71.9
2018-03-08T04:08:17.233Z,71.8
2018-03-08T04:09:16.505Z,71.9
2018-03-08T04:10:16.775Z,72.0
2018-03-08T04:11:16.838Z,72.0
2018-03-08T04:12:17.111Z,72.0
2018-03-08T04:13:16.374Z,71.8
2018-03-08T04:14:16.642Z,71.9
2018-03-08T04:15:16.917Z,72.0
2018-03-08T04:16:17.490Z,72.1
2018-03-08T04:17:16.769Z,72.2
2018-03-08T04:18:17.044Z,72.2
2018-03-08T04:19:16.316Z,72.2
2018-03-08T04:20:16.585Z,72.3
2018-03-08T04:21:16.632Z,72.5
2018-03-08T04:22:16.895Z,72.9
2018-03-08T04:23:17.173Z,73.0
2018-03-08T04:24:16.442Z,72.9
2018-03-08T04:25:16.719Z,72.9
2018-03-08T04:26:16.990Z,73.0
2018-03-08T04:27:17.263Z,72.9
2018-03-08T04:28:16.537Z,73.0
2018-03-08T04:29:16.806Z,73.7
2018-03-08T04:30:17.086Z,73.8
2018-03-08T04:31:17.402Z,74.0
2018-03-08T04:32:16.678Z,74.6
2018-03-08T04:33:16.965Z,74.7
2018-03-08T04:34:17.233Z,75.2
2018-03-08T04:35:16.501Z,75.2
2018-03-08T04:36:16.773Z,75.2
2018-03-08T04:37:17.045Z,75.3
2018-03-08T04:38:16.311Z,75.9
2018-03-08T04:39:16.584Z,75.8
2018-03-08T04:40:16.860Z,75.7
2018-03-08T04:41:16.908Z,76.2
2018-03-08T04:42:17.178Z,76.1
2018-03-08T04:43:16.445Z,76.2
2018-03-08T04:44:16.717Z,76.2
2018-03-08T04:45:16.991Z,76.8
2018-03-08T04:46:16.258Z,76.8
2018-03-08T04:47:16.521Z,76.9
2018-03-08T04:48:16.786Z,76.9
2018-03-08T04:49:17.058Z,77.0
2018-03-08T04:50:16.754Z,77.5
2018-03-08T04:51:16.380Z,77.7
2018-03-08T04:52:16.650Z,77.7
2018-03-08T04:53:16.934Z,77.8
2018-03-08T04:54:17.247Z,78.3
2018-03-08T04:55:16.519Z,78.2
2018-03-08T04:56:16.794Z,78.3
2018-03-08T04:57:17.346Z,78.4
2018-03-08T04:58:16.626Z,79.0
2018-03-08T04:59:16.892Z,79.2
2018-03-08T05:00:17.172Z,79.2
2018-03-08T05:01:17.214Z,79.2
2018-03-08T05:02:16.869Z,79.3
2018-03-08T05:03:17.151Z,79.3
2018-03-08T05:04:16.412Z,80.0
2018-03-08T05:05:16.692Z,80.0
2018-03-08T05:06:16.956Z,79.9
2018-03-08T05:07:17.397Z,79.9
2018-03-08T05:08:16.656Z,80.0
2018-03-08T05:09:16.927Z,80.5
2018-03-08T05:10:17.207Z,80.5
2018-03-08T05:11:17.248Z,80.7
2018-03-08T05:12:16.519Z,80.8
2018-03-08T05:13:16.785Z,81.5
2018-03-08T05:14:17.044Z,81.5
2018-03-08T05:15:16.338Z,81.5
2018-03-08T05:16:16.617Z,81.5
2018-03-08T05:17:16.941Z,81.5
2018-03-08T05:18:17.215Z,82.2
2018-03-08T05:19:16.482Z,82.2
2018-03-08T05:20:16.772Z,82.2
2018-03-08T05:21:16.795Z,82.3
2018-03-08T05:22:17.567Z,82.8
2018-03-08T05:23:16.837Z,82.8
2018-03-08T05:24:17.112Z,82.8
2018-03-08T05:25:16.383Z,83.3
2018-03-08T05:26:16.651Z,83.3
2018-03-08T05:27:16.927Z,83.5
2018-03-08T05:28:17.193Z,83.5
2018-03-08T05:29:16.460Z,83.9
2018-03-08T05:30:16.746Z,83.9
2018-03-08T05:31:16.781Z,84.1
2018-03-08T05:32:17.049Z,84.1
2018-03-08T05:33:16.324Z,84.5
2018-03-08T05:34:16.584Z,84.7
2018-03-08T05:35:16.848Z,84.5
2018-03-08T05:36:17.118Z,84.6
2018-03-08T05:37:16.423Z,84.7
2018-03-08T05:38:16.700Z,84.5
2018-03-08T05:39:16.966Z,85.0
2018-03-08T05:40:17.249Z,85.0
2018-03-08T05:41:16.299Z,84.9
2018-03-08T05:42:16.573Z,85.0
2018-03-08T05:43:16.840Z,85.0
2018-03-08T05:44:17.110Z,85.0
2018-03-08T05:45:16.386Z,85.0
2018-03-08T05:46:16.653Z,85.0
2018-03-08T05:47:16.931Z,85.0
2018-03-08T05:48:17.201Z,84.9
2018-03-08T05:49:16.479Z,85.0
2018-03-08T05:50:16.763Z,85.0
2018-03-08T05:51:16.796Z,85.0
2018-03-08T05:52:17.374Z,85.0
2018-03-08T05:53:16.641Z,85.0
2018-03-08T05:54:16.913Z,85.0
2018-03-08T05:55:17.197Z,85.1
2018-03-08T05:56:16.468Z,85.0
2018-03-08T05:57:16.740Z,85.0
2018-03-08T05:58:17.012Z,85.5
2018-03-08T05:59:16.282Z,85.5
2018-03-08T06:00:16.561Z,85.5
2018-03-08T06:01:16.602Z,85.4
2018-03-08T06:02:16.878Z,85.4
2018-03-08T06:03:17.148Z,85.4
2018-03-08T06:04:16.415Z,85.3
2018-03-08T06:05:16.739Z,85.3
2018-03-08T06:06:17.012Z,85.3
2018-03-08T06:07:16.334Z,85.3
2018-03-08T06:08:16.621Z,85.3
2018-03-08T06:09:16.891Z,85.2
2018-03-08T06:10:17.179Z,85.2
2018-03-08T06:11:17.204Z,85.2
2018-03-08T06:12:16.470Z,85.0
2018-03-08T06:13:16.732Z,85.0
2018-03-08T06:14:17.015Z,84.9
2018-03-08T06:15:16.287Z,85.0
2018-03-08T06:16:16.562Z,85.0
2018-03-08T06:17:16.830Z,85.0
2018-03-08T06:18:17.113Z,84.9
2018-03-08T06:19:16.392Z,84.8
2018-03-08T06:20:16.685Z,84.8
2018-03-08T06:21:16.747Z,84.7
2018-03-08T06:22:17.016Z,84.7
2018-03-08T06:23:16.294Z,84.7
2018-03-08T06:24:16.563Z,84.7
2018-03-08T06:25:16.843Z,84.6
2018-03-08T06:26:17.115Z,84.5
2018-03-08T06:27:16.381Z,84.4
2018-03-08T06:28:16.652Z,84.2
2018-03-08T06:29:16.918Z,84.0
2018-03-08T06:30:17.188Z,84.0
2018-03-08T06:31:17.233Z,83.8
2018-03-08T06:32:16.507Z,83.8
2018-03-08T06:33:16.776Z,83.8
2018-03-08T06:34:17.052Z,83.7
2018-03-08T06:35:16.331Z,83.5
2018-03-08T06:36:16.615Z,83.5
2018-03-08T06:37:16.894Z,82.9
2018-03-08T06:38:17.174Z,82.8
2018-03-08T06:39:16.436Z,82.8
2018-03-08T06:40:16.721Z,82.6
2018-03-08T06:41:16.769Z,82.5
2018-03-08T06:42:17.045Z,82.5
2018-03-08T06:43:16.313Z,82.3
2018-03-08T06:44:16.580Z,82.3
2018-03-08T06:45:16.844Z,82.2
2018-03-08T06:46:17.109Z,81.7
2018-03-08T06:47:16.379Z,81.5
2018-03-08T06:48:16.645Z,81.2
2018-03-08T06:49:16.911Z,81.1
2018-03-08T06:50:17.184Z,81.0
2018-03-08T06:51:17.232Z,80.3
2018-03-08T06:52:16.504Z,80.2
2018-03-08T06:53:16.776Z,80.0
2018-03-08T06:54:17.048Z,79.9
2018-03-08T06:55:16.316Z,79.3
2018-03-08T06:56:16.590Z,79.1
2018-03-08T06:57:16.859Z,79.0
2018-03-08T06:58:17.140Z,78.3
2018-03-08T06:59:16.420Z,78.0
2018-03-08T07:00:16.704Z,78.0
2018-03-08T07:01:16.754Z,77.4
2018-03-08T07:02:17.031Z,77.2
2018-03-08T07:03:16.300Z,77.0
2018-03-08T07:04:16.579Z,76.8
2018-03-08T07:05:16.854Z,76.7
2018-03-08T07:06:17.123Z,75.9
2018-03-08T07:07:16.395Z,76.0
2018-03-08T07:08:16.662Z,75.8
2018-03-08T07:09:16.932Z,75.7
2018-03-08T07:10:20.240Z,75.3
2018-03-08T07:11:19.289Z,75.5
2018-03-08T07:12:16.574Z,75.6
2018-03-08T07:13:16.845Z,75.2
2018-03-08T07:14:17.128Z,75.0
2018-03-08T07:15:16.402Z,75.6
2018-03-08T07:16:16.667Z,75.5
2018-03-08T07:17:16.945Z,75.7
2018-03-08T07:18:17.206Z,74.5
2018-03-08T07:19:16.490Z,74.5
2018-03-08T07:20:16.755Z,74.5
2018-03-08T07:21:16.800Z,74.7
2018-03-08T07:22:17.065Z,74.5
2018-03-08T07:23:16.333Z,74.6
2018-03-08T07:24:16.597Z,74.2
2018-03-08T07:25:16.880Z,74.3
2018-03-08T07:26:17.160Z,74.5
2018-03-08T07:27:16.424Z,74.5
2018-03-08T07:28:16.695Z,74.6
2018-03-08T07:29:16.965Z,73.0
2018-03-08T07:30:17.245Z,73.0
2018-03-08T07:31:16.281Z,73.5
2018-03-08T07:32:16.565Z,73.1
2018-03-08T07:33:16.835Z,72.8
2018-03-08T07:34:17.325Z,72.2
2018-03-08T07:35:16.604Z,72.4
2018-03-08T07:36:16.886Z,72.5
2018-03-08T07:37:17.171Z,71.8
2018-03-08T07:38:16.446Z,71.5
2018-03-08T07:39:16.722Z,71.7
2018-03-08T07:40:17.059Z,71.0
2018-03-08T07:41:17.047Z,71.0
2018-03-08T07:42:16.313Z,71.0
2018-03-08T07:43:16.582Z,69.5
2018-03-08T07:44:16.845Z,68.8
2018-03-08T07:45:17.130Z,68.0
2018-03-08T07:46:16.401Z,68.3
2018-03-08T07:47:16.680Z,68.1
2018-03-08T07:48:16.947Z,67.7
2018-03-08T07:49:17.213Z,68.0
2018-03-08T07:50:16.481Z,67.3
2018-03-08T07:51:16.527Z,66.8
2018-03-08T07:52:16.807Z,66.5
2018-03-08T07:53:17.088Z,66.0
2018-03-08T07:54:16.351Z,65.5
2018-03-08T07:55:16.620Z,65.5
2018-03-08T07:56:16.893Z,64.8
2018-03-08T07:57:17.163Z,64.5
2018-03-08T07:58:16.436Z,64.0
2018-03-08T07:59:16.714Z,63.9
2018-03-08T08:00:17.047Z,63.7
2018-03-08T08:01:17.053Z,63.1
2018-03-08T08:02:16.414Z,62.5
2018-03-08T08:03:16.699Z,62.5
2018-03-08T08:04:16.962Z,62.2
2018-03-08T08:05:17.241Z,60.6
2018-03-08T08:06:16.517Z,60.9
2018-03-08T08:07:16.783Z,60.4
2018-03-08T08:08:17.061Z,59.8
2018-03-08T08:09:16.333Z,60.0
2018-03-08T08:10:16.600Z,60.0
2018-03-08T08:11:16.655Z,60.4
2018-03-08T08:12:16.931Z,60.5
2018-03-08T08:13:17.218Z,60.9
2018-03-08T08:14:16.500Z,60.4
2018-03-08T08:15:16.767Z,60.4
2018-03-08T08:16:17.036Z,60.4
2018-03-08T08:17:16.320Z,60.5
2018-03-08T08:18:16.585Z,60.9
2018-03-08T08:19:16.860Z,61.0
2018-03-08T08:20:17.141Z,61.1
2018-03-08T08:21:17.176Z,61.5
2018-03-08T08:22:16.446Z,61.5
2018-03-08T08:23:16.722Z,61.3
2018-03-08T08:24:16.995Z,61.5
2018-03-08T08:25:16.269Z,61.0
2018-03-08T08:26:16.542Z,60.9
2018-03-08T08:27:16.815Z,60.7
2018-03-08T08:28:17.083Z,61.1
2018-03-08T08:29:16.360Z,61.2
2018-03-08T08:30:16.652Z,61.3
2018-03-08T08:31:16.674Z,61.4
2018-03-08T08:32:16.946Z,61.3
2018-03-08T08:33:17.213Z,61.0
2018-03-08T08:34:16.519Z,61.0
2018-03-08T08:35:16.848Z,61.1
2018-03-08T08:36:17.128Z,61.3
2018-03-08T08:37:16.403Z,61.0
2018-03-08T08:38:16.676Z,60.8
2018-03-08T08:39:16.949Z,60.6
2018-03-08T08:40:17.247Z,60.6
2018-03-08T08:41:16.277Z,61.0
2018-03-08T08:42:16.549Z,61.4
2018-03-08T08:43:16.830Z,61.4
2018-03-08T08:44:17.106Z,62.1
2018-03-08T08:45:16.377Z,62.4
2018-03-08T08:46:16.655Z,62.5
2018-03-08T08:47:16.932Z,63.0
2018-03-08T08:48:17.207Z,63.4
2018-03-08T08:49:16.488Z,63.5
2018-03-08T08:50:16.767Z,64.2
2018-03-08T08:51:16.819Z,64.3
2018-03-08T08:52:17.118Z,64.5
2018-03-08T08:53:16.399Z,65.1
2018-03-08T08:54:16.668Z,65.5
2018-03-08T08:55:16.942Z,65.5
2018-03-08T08:56:17.221Z,65.7
2018-03-08T08:57:16.492Z,66.2
2018-03-08T08:58:16.760Z,67.0
2018-03-08T08:59:17.046Z,67.0
2018-03-08T09:00:16.407Z,66.8
2018-03-08T09:01:16.361Z,67.0
2018-03-08T09:02:16.646Z,67.1
2018-03-08T09:03:16.917Z,67.5
2018-03-08T09:04:17.239Z,67.4
2018-03-08T09:05:16.512Z,67.8
2018-03-08T09:06:16.785Z,67.8
2018-03-08T09:07:17.053Z,68.3
2018-03-08T09:08:16.321Z,68.5
2018-03-08T09:09:16.586Z,68.7
2018-03-08T09:10:16.873Z,68.5
2018-03-08T09:11:16.914Z,69.6
2018-03-08T09:12:17.448Z,69.5
2018-03-08T09:13:16.721Z,69.7
2018-03-08T09:14:16.999Z,69.5
2018-03-08T09:15:16.337Z,69.8
2018-03-08T09:16:16.663Z,69.9
2018-03-08T09:17:16.940Z,70.0
2018-03-08T09:18:17.211Z,70.9
2018-03-08T09:19:16.485Z,71.0
2018-03-08T09:20:16.763Z,70.8
2018-03-08T09:21:16.819Z,70.6
2018-03-08T09:22:17.094Z,70.7
2018-03-08T09:23:16.378Z,70.7
2018-03-08T09:24:16.650Z,70.5
2018-03-08T09:25:16.918Z,70.5
2018-03-08T09:26:17.187Z,70.5
2018-03-08T09:27:16.466Z,70.6
2018-03-08T09:28:16.732Z,70.5
2018-03-08T09:29:17.009Z,70.6
2018-03-08T09:30:16.278Z,70.9
2018-03-08T09:31:16.323Z,70.8
2018-03-08T09:32:16.591Z,71.0
2018-03-08T09:33:16.871Z,70.8
2018-03-08T09:34:17.133Z,70.2
2018-03-08T09:35:16.407Z,70.0
2018-03-08T09:36:16.677Z,70.0
2018-03-08T09:37:16.949Z,70.7
2018-03-08T09:38:17.229Z,70.3
2018-03-08T09:39:16.502Z,70.2
2018-03-08T09:40:16.786Z,69.5
2018-03-08T09:41:16.815Z,69.3
2018-03-08T09:42:17.100Z,69.2
2018-03-08T09:43:16.365Z,69.0
2018-03-08T09:44:16.635Z,68.9
2018-03-08T09:45:16.897Z,68.7
2018-03-08T09:46:17.177Z,68.2
2018-03-08T09:47:16.461Z,67.5
2018-03-08T09:48:16.731Z,67.0
2018-03-08T09:49:16.998Z,66.8
2018-03-08T09:50:16.274Z,66.8
2018-03-08T09:51:16.311Z,66.0
2018-03-08T09:52:16.565Z,65.8
2018-03-08T09:53:16.830Z,65.7
2018-03-08T09:54:17.106Z,65.3
2018-03-08T09:55:16.373Z,65.5
2018-03-08T09:56:16.644Z,65.0
2018-03-08T09:57:16.907Z,64.7
2018-03-08T09:58:17.181Z,64.2
2018-03-08T09:59:16.452Z,63.6
2018-03-08T10:00:16.758Z,63.3
2018-03-08T10:01:16.777Z,63.2
2018-03-08T10:02:17.050Z,62.0
2018-03-08T10:03:16.328Z,61.2
2018-03-08T10:04:16.609Z,62.0
2018-03-08T10:05:16.895Z,61.6
2018-03-08T10:06:17.170Z,61.3
2018-03-08T10:07:16.447Z,61.4
2018-03-08T10:08:16.725Z,61.0
2018-03-08T10:09:17.000Z,61.1
2018-03-08T10:10:16.285Z,60.4
2018-03-08T10:11:16.325Z,59.0
2018-03-08T10:12:16.594Z,59.0
2018-03-08T10:13:16.863Z,59.9
2018-03-08T10:14:17.140Z,59.1
2018-03-08T10:15:16.434Z,59.6
2018-03-08T10:16:16.715Z,59.1
2018-03-08T10:17:16.978Z,59.5
2018-03-08T10:18:17.240Z,59.5
2018-03-08T10:19:16.508Z,58.6
2018-03-08T10:20:16.782Z,57.7
2018-03-08T10:21:16.851Z,57.4
2018-03-08T10:22:17.131Z,55.8
2018-03-08T10:23:16.412Z,57.2
2018-03-08T10:24:16.690Z,56.4
2018-03-08T10:25:16.954Z,54.5
2018-03-08T10:26:17.223Z,54.6
2018-03-08T10:27:16.495Z,55.4
2018-03-08T10:28:16.759Z,55.0
2018-03-08T10:29:17.032Z,54.4
2018-03-08T10:30:16.328Z,53.7
2018-03-08T10:31:16.365Z,54.0
2018-03-08T10:32:16.638Z,53.5
2018-03-08T10:33:16.954Z,54.2
2018-03-08T10:34:16.297Z,53.5
2018-03-08T10:35:16.571Z,52.9
2018-03-08T10:36:16.842Z,54.2
2018-03-08T10:37:17.116Z,54.0
2018-03-08T10:38:16.375Z,54.0
2018-03-08T10:40:16.411Z,53.5
2018-03-08T10:41:16.469Z,53.6
2018-03-08T10:42:16.753Z,53.6
2018-03-08T10:43:17.035Z,54.1
2018-03-08T10:44:16.300Z,53.5
2018-03-08T10:45:16.581Z,53.4
2018-03-08T10:46:16.854Z,53.5
2018-03-08T10:47:17.124Z,54.9
2018-03-08T10:48:16.396Z,54.8
2018-03-08T10:49:16.677Z,54.6
2018-03-08T10:50:16.957Z,54.4
2018-03-08T10:51:16.988Z,54.5
2018-03-08T10:52:17.259Z,54.1
2018-03-08T10:53:16.525Z,54.2
2018-03-08T10:54:16.930Z,54.8
2018-03-08T10:55:17.534Z,55.4
2018-03-08T10:56:16.798Z,55.0
2018-03-08T10:57:17.065Z,55.5
2018-03-08T10:58:16.329Z,55.7
2018-03-08T10:59:16.591Z,55.9
2018-03-08T11:00:16.879Z,56.2
2018-03-08T11:01:16.917Z,55.9
2018-03-08T11:02:17.192Z,56.5
2018-03-08T11:03:16.464Z,56.6
2018-03-08T11:04:16.736Z,56.5
2018-03-08T11:05:17.009Z,55.8
2018-03-08T11:06:16.273Z,55.7
2018-03-08T11:07:16.536Z,54.7
2018-03-08T11:08:16.804Z,54.4
2018-03-08T11:09:17.070Z,53.8
2018-03-08T11:10:16.356Z,54.2
2018-03-08T11:11:16.382Z,52.7
2018-03-08T11:12:16.649Z,51.2
2018-03-08T11:13:16.918Z,50.5
2018-03-08T11:14:17.200Z,50.8
2018-03-08T11:15:16.476Z,49.4
2018-03-08T11:16:16.757Z,48.9
2018-03-08T11:17:17.039Z,48.6
2018-03-08T11:18:16.316Z,47.9
2018-03-08T11:19:16.586Z,47.8
2018-03-08T11:20:16.862Z,47.2
2018-03-08T11:21:16.921Z,45.0
2018-03-08T11:22:17.195Z,44.9
2018-03-08T11:23:16.464Z,44.0
2018-03-08T11:24:16.750Z,42.6
2018-03-08T11:25:17.013Z,43.0
2018-03-08T11:26:16.285Z,41.9
2018-03-08T11:27:16.559Z,45.4
2018-03-08T11:28:16.829Z,44.6
2018-03-08T11:29:17.099Z,43.7
2018-03-08T11:30:16.385Z,42.9
2018-03-08T11:31:16.417Z,41.9
2018-03-08T11:32:16.687Z,42.4
2018-03-08T11:33:16.964Z,42.2
2018-03-08T11:34:17.236Z,42.6
2018-03-08T11:35:16.510Z,42.1
2018-03-08T11:36:16.788Z,42.2
2018-03-08T11:37:17.058Z,42.2
2018-03-08T11:38:16.340Z,41.5
2018-03-08T11:39:16.614Z,40.8
2018-03-08T11:40:16.895Z,40.5
2018-03-08T11:41:16.919Z,41.0
2018-03-08T11:42:17.193Z,41.6
2018-03-08T11:43:16.468Z,42.3
2018-03-08T11:44:16.735Z,42.1
2018-03-08T11:45:17.004Z,42.5
2018-03-08T11:46:16.290Z,42.0
2018-03-08T11:47:16.560Z,42.0
2018-03-08T11:48:16.834Z,42.5
2018-03-08T11:49:17.108Z,41.9
2018-03-08T11:50:16.390Z,41.8
2018-03-08T11:51:16.433Z,41.5
2018-03-08T11:52:16.704Z,41.5
2018-03-08T11:53:16.981Z,41.5
2018-03-08T11:54:17.251Z,41.4
2018-03-08T11:55:16.531Z,41.5
2018-03-08T11:56:16.820Z,41.3
2018-03-08T11:57:17.097Z,41.2
2018-03-08T11:58:16.364Z,41.5
2018-03-08T11:59:16.633Z,41.2
2018-03-08T12:00:16.956Z,41.5
2018-03-08T12:01:16.964Z,41.4
2018-03-08T12:02:17.239Z,41.4
2018-03-08T12:03:16.508Z,41.7
2018-03-08T12:04:16.771Z,41.4
2018-03-08T12:05:17.040Z,41.5
2018-03-08T12:06:16.304Z,41.2
2018-03-08T12:07:16.569Z,41.2
2018-03-08T12:08:16.844Z,41.5
2018-03-08T12:09:17.120Z,41.8
2018-03-08T12:10:16.397Z,41.8
2018-03-08T12:11:16.443Z,41.8
2018-03-08T12:12:16.723Z,41.9
2018-03-08T12:13:16.993Z,41.6
2018-03-08T12:14:16.256Z,41.4
2018-03-08T12:15:16.529Z,42.2
2018-03-08T12:16:16.796Z,42.1
2018-03-08T12:17:17.061Z,42.3
2018-03-08T12:18:16.334Z,42.3
2018-03-08T12:19:16.613Z,42.5
2018-03-08T12:20:16.908Z,42.9
2018-03-08T12:21:16.925Z,43.3
2018-03-08T12:22:17.197Z,43.2
2018-03-08T12:23:16.475Z,43.3
2018-03-08T12:24:16.763Z,42.9
2018-03-08T12:25:17.030Z,43.0
2018-03-08T12:26:16.305Z,43.1
2018-03-08T12:27:16.576Z,42.5
2018-03-08T12:28:16.841Z,42.0
2018-03-08T12:29:17.117Z,42.4
2018-03-08T12:30:16.407Z,42.6
2018-03-08T12:31:16.436Z,42.9
2018-03-08T12:32:16.706Z,42.3
2018-03-08T12:33:16.986Z,41.6
2018-03-08T12:34:16.257Z,42.1
2018-03-08T12:35:16.529Z,41.9
2018-03-08T12:36:16.803Z,41.6
2018-03-08T12:37:17.069Z,41.1
2018-03-08T12:38:16.369Z,41.5
2018-03-08T12:39:16.638Z,41.2
2018-03-08T12:40:16.905Z,42.1
2018-03-08T12:41:17.004Z,41.7
2018-03-08T12:42:16.290Z,41.6
2018-03-08T12:43:16.556Z,41.1
2018-03-08T12:44:16.830Z,41.4
2018-03-08T12:45:17.097Z,41.1
2018-03-08T12:46:16.368Z,41.1
2018-03-08T12:47:16.644Z,40.6
2018-03-08T12:48:16.918Z,39.9
2018-03-08T12:49:17.190Z,39.6
2018-03-08T12:50:16.469Z,39.8
2018-03-08T12:51:16.508Z,39.5
2018-03-08T12:52:16.785Z,39.0
2018-03-08T12:53:17.057Z,39.2
2018-03-08T12:54:16.336Z,39.5
2018-03-08T12:55:16.606Z,39.4
2018-03-08T12:56:16.873Z,39.3
2018-03-08T12:57:17.223Z,39.1
2018-03-08T12:58:16.497Z,39.0
2018-03-08T12:59:16.772Z,39.0
2018-03-08T13:00:17.054Z,39.3
2018-03-08T13:01:17.088Z,39.1
2018-03-08T13:02:16.354Z,38.9
2018-03-08T13:03:16.637Z,38.9
2018-03-08T13:04:16.909Z,38.2
2018-03-08T13:05:17.181Z,38.0
2018-03-08T13:06:16.459Z,37.9
2018-03-08T13:07:16.734Z,38.1
2018-03-08T13:08:17.010Z,37.8
2018-03-08T13:09:16.279Z,37.0
2018-03-08T13:10:16.563Z,36.6
2018-03-08T13:11:16.587Z,36.6
2018-03-08T13:12:16.857Z,36.6
2018-03-08T13:13:17.127Z,36.6
2018-03-08T13:14:16.401Z,36.5
2018-03-08T13:15:16.684Z,36.5
2018-03-08T13:16:16.950Z,36.9
2018-03-08T13:17:17.219Z,37.4
2018-03-08T13:18:16.487Z,37.4
2018-03-08T13:19:16.774Z,37.7